Time;durP1;ratioP1;P1;durP2;ratioP2;P2;SDS_P1;SDS_P2;PMS_P1;PMS_P2;Temp;Humidity;BMP_temperature;BMP_pressure;BME280_temperature;BME280_humidity;BME280_pressure;Samples;Min_cycle;Max_cycle;Signal;HPM_P1;HPM_P2
2021/07/31 00:00:18;;;;;;;5.28;1.25;;;;;;;18.88;62.35;99893.53;5153961;27;20492;-51
2021/07/31 00:02:45;;;;;;;3.58;0.80;;;;;;;18.86;62.48;99884.91;5155840;27;20487;-51
2021/07/31 00:05:11;;;;;;;2.83;0.65;;;;;;;18.82;62.45;99889.88;5156009;27;20190;-52
2021/07/31 00:07:36;;;;;;;4.60;0.60;;;;;;;18.78;62.49;99886.78;5155759;27;20167;-54
2021/07/31 00:10:04;;;;;;;2.50;0.80;;;;;;;18.85;62.25;99889.44;5152989;27;20048;-51
2021/07/31 00:12:29;;;;;;;5.97;0.70;;;;;;;18.79;62.33;99893.78;5137042;27;20397;-52
2021/07/31 00:14:55;;;;;;;5.22;0.73;;;;;;;18.80;62.47;99892.75;5155715;27;20023;-52
2021/07/31 00:17:21;;;;;;;4.53;0.80;;;;;;;18.75;62.49;99891.72;5156056;27;20503;-52
2021/07/31 00:19:46;;;;;;;2.92;0.70;;;;;;;18.72;62.56;99890.31;5156104;27;20407;-52
2021/07/31 00:22:12;;;;;;;3.60;0.60;;;;;;;18.72;62.54;99893.00;5155910;27;20042;-51
2021/07/31 00:24:38;;;;;;;4.88;0.80;;;;;;;18.73;62.50;99897.31;5156067;27;20042;-52
2021/07/31 00:27:03;;;;;;;5.25;0.80;;;;;;;18.65;62.66;99901.03;5155672;27;20449;-52
2021/07/31 00:29:29;;;;;;;3.35;0.85;;;;;;;18.64;62.85;99901.25;5155868;27;20027;-52
2021/07/31 00:31:55;;;;;;;1.88;0.50;;;;;;;18.61;62.90;99899.81;5137489;27;20042;-53
2021/07/31 00:34:20;;;;;;;7.25;0.82;;;;;;;18.58;62.95;99895.72;5155602;27;20026;-52
2021/07/31 00:36:46;;;;;;;5.60;0.65;;;;;;;18.59;63.02;99891.19;5137286;27;20035;-53
2021/07/31 00:39:12;;;;;;;3.75;0.73;;;;;;;18.56;62.90;99895.09;5155709;27;20102;-52
2021/07/31 00:41:38;;;;;;;3.33;0.73;;;;;;;18.58;62.91;99890.38;5156049;27;20054;-52
2021/07/31 00:44:04;;;;;;;2.70;0.82;;;;;;;18.57;62.99;99894.06;5156028;27;20057;-52
2021/07/31 00:46:29;;;;;;;4.68;0.90;;;;;;;18.57;62.95;99888.72;5155756;27;20492;-52
2021/07/31 00:48:56;;;;;;;2.97;0.60;;;;;;;18.56;62.95;99892.44;5137044;27;20083;-51
2021/07/31 00:51:22;;;;;;;10.07;1.30;;;;;;;18.55;62.77;99893.47;5137029;27;20038;-52
2021/07/31 00:53:49;;;;;;;5.15;0.50;;;;;;;18.52;63.05;99895.75;5155718;27;20033;-52
2021/07/31 00:56:15;;;;;;;3.65;1.20;;;;;;;18.51;63.03;99899.44;5137100;27;20030;-51
2021/07/31 00:58:42;;;;;;;2.88;0.80;;;;;;;18.52;62.99;99898.41;5136724;27;20039;-51
2021/07/31 01:01:12;;;;;;;5.38;0.70;;;;;;;18.53;62.88;99897.38;5131226;27;20030;-55
2021/07/31 01:03:40;;;;;;;3.78;0.80;;;;;;;18.53;62.86;99902.72;5129413;27;20031;-51
2021/07/31 01:06:07;;;;;;;5.18;1.00;;;;;;;18.51;62.68;99902.09;5155244;27;20031;-52
2021/07/31 01:08:33;;;;;;;2.80;0.75;;;;;;;18.50;63.13;99900.47;5155101;27;20031;-52
2021/07/31 01:11:02;;;;;;;2.40;1.02;;;;;;;18.44;63.16;99899.47;5155387;27;20036;-51
2021/07/31 01:13:30;;;;;;;5.68;0.98;;;;;;;18.49;63.17;99901.50;5136768;27;20034;-52
2021/07/31 01:16:01;;;;;;;4.07;0.90;;;;;;;18.49;63.00;99896.97;5155403;27;20031;-52
2021/07/31 01:18:28;;;;;;;3.67;0.60;;;;;;;18.44;63.03;99894.94;5136557;27;20035;-52
2021/07/31 01:20:54;;;;;;;6.47;0.77;;;;;;;18.41;63.19;99894.53;5155144;27;20030;-51
2021/07/31 01:23:20;;;;;;;4.03;0.80;;;;;;;18.44;62.95;99897.59;5120714;27;20550;-53
2021/07/31 01:25:47;;;;;;;4.15;0.90;;;;;;;18.45;63.10;99896.59;5121819;27;20030;-53
2021/07/31 01:28:13;;;;;;;3.40;0.80;;;;;;;18.44;63.09;99894.94;5147197;27;20033;-52
2021/07/31 01:30:39;;;;;;;4.80;0.85;;;;;;;18.39;63.46;99889.41;5115044;27;20505;-53
2021/07/31 01:33:06;;;;;;;4.95;1.00;;;;;;;18.32;63.55;99889.41;5133471;27;20038;-51
2021/07/31 01:35:32;;;;;;;3.58;0.93;;;;;;;18.32;63.78;99891.25;5122874;27;20034;-51
2021/07/31 01:38:06;;;;;;;2.15;0.50;;;;;;;18.30;63.73;99890.66;5114839;27;20027;-51
2021/07/31 01:40:32;;;;;;;4.75;0.98;;;;;;;18.17;63.93;99886.16;5118144;27;20035;-52
2021/07/31 01:42:58;;;;;;;4.60;0.90;;;;;;;18.17;64.13;99884.28;5119258;27;20114;-52
2021/07/31 01:45:26;;;;;;;4.53;0.68;;;;;;;18.17;64.12;99878.94;5114823;27;20102;-52
2021/07/31 01:47:52;;;;;;;7.28;1.20;;;;;;;18.08;64.29;99878.31;5133093;27;20062;-52
2021/07/31 01:50:19;;;;;;;2.80;0.73;;;;;;;18.13;64.17;99882.25;5114669;27;20066;-52
2021/07/31 01:52:48;;;;;;;4.00;0.80;;;;;;;18.12;64.34;99884.13;5133088;27;20043;-51
2021/07/31 01:55:15;;;;;;;4.32;0.93;;;;;;;18.12;64.35;99877.94;5097590;27;20135;-52
2021/07/31 01:57:46;;;;;;;2.75;0.65;;;;;;;18.12;64.17;99883.28;5114654;27;20046;-51
2021/07/31 02:00:32;;;;;;;6.38;1.02;;;;;;;18.08;64.55;99874.81;5148713;27;20461;-51
2021/07/31 02:03:03;;;;;;;4.40;0.80;;;;;;;18.07;64.68;99873.19;5152444;27;20037;-50
2021/07/31 02:05:36;;;;;;;3.42;0.50;;;;;;;18.05;64.56;99865.38;5152062;27;20027;-52
2021/07/31 02:08:02;;;;;;;5.40;1.20;;;;;;;18.08;64.38;99872.97;5117189;27;20038;-51
2021/07/31 02:10:34;;;;;;;8.40;0.93;;;;;;;18.03;64.50;99869.28;5114304;27;20501;-52
2021/07/31 02:13:00;;;;;;;4.53;1.10;;;;;;;18.03;64.43;99869.28;5115288;27;20413;-51
2021/07/31 02:15:31;;;;;;;5.40;1.30;;;;;;;17.95;64.55;99865.78;5115109;27;20042;-54
2021/07/31 02:18:01;;;;;;;7.85;0.85;;;;;;;17.96;64.69;99869.28;5115450;27;20043;-52
2021/07/31 02:20:28;;;;;;;3.88;0.80;;;;;;;18.03;64.37;99859.41;5115010;27;20034;-52
2021/07/31 02:23:28;;;;;;;4.05;1.02;;;;;;;18.04;64.13;99868.25;5123017;27;20050;-52
2021/07/31 02:26:24;;;;;;;3.65;0.93;;;;;;;18.08;64.18;99869.47;5134733;27;20034;-51
2021/07/31 02:29:13;;;;;;;5.20;1.13;;;;;;;18.12;63.82;99873.41;5138406;27;20077;-52
2021/07/31 02:31:40;;;;;;;5.55;0.70;;;;;;;18.08;64.16;99874.81;5135210;27;20034;-52
2021/07/31 02:34:06;;;;;;;2.97;0.68;;;;;;;17.98;64.34;99865.38;5152717;27;20366;-52
2021/07/31 02:36:35;;;;;;;3.80;1.10;;;;;;;18.00;64.37;99867.03;5152507;27;20492;-50
2021/07/31 02:39:21;;;;;;;;;;;;;;;17.97;64.49;99865.56;5143231;27;20030;-54
2021/07/31 02:41:47;;;;;;;2.83;0.77;;;;;;;18.00;64.38;99865.16;5132898;27;19915;-52
2021/07/31 02:44:14;;;;;;;4.45;1.05;;;;;;;18.00;64.38;99859.81;5114519;27;20035;-52
2021/07/31 02:46:40;;;;;;;2.65;0.60;;;;;;;18.02;64.18;99855.09;5132810;27;20069;-52
2021/07/31 02:49:06;;;;;;;4.45;0.63;;;;;;;18.00;64.38;99859.00;5114334;27;20031;-52
2021/07/31 02:51:32;;;;;;;1.98;0.80;;;;;;;18.01;64.23;99856.13;5132681;27;20035;-52
2021/07/31 02:54:11;;;;;;;4.65;0.65;;;;;;;18.01;64.33;99856.13;5114269;27;20039;-52
2021/07/31 02:56:36;;;;;;;4.07;0.70;;;;;;;18.02;64.19;99859.59;5134356;27;20083;-50
2021/07/31 02:59:06;;;;;;;4.70;0.80;;;;;;;18.03;64.06;99853.25;5124886;27;20027;-52
2021/07/31 03:01:34;;;;;;;4.45;0.80;;;;;;;18.04;64.12;99855.72;5140202;27;20033;-52
2021/07/31 03:04:01;;;;;;;4.85;0.82;;;;;;;18.06;64.13;99850.94;5134709;27;20469;-51
2021/07/31 03:06:28;;;;;;;2.70;0.70;;;;;;;18.06;63.94;99850.16;5153032;27;20034;-50
2021/07/31 03:08:55;;;;;;;2.22;0.68;;;;;;;18.04;64.34;99847.69;5134760;27;20030;-52
2021/07/31 03:11:22;;;;;;;1.60;0.43;;;;;;;18.04;64.32;99857.56;5134604;27;20473;-51
2021/07/31 03:13:49;;;;;;;2.67;0.77;;;;;;;18.05;64.10;99848.50;5153047;27;20122;-51
2021/07/31 03:16:17;;;;;;;3.03;1.00;;;;;;;18.06;64.18;99842.94;5135465;27;20052;-51
2021/07/31 03:18:46;;;;;;;2.33;0.68;;;;;;;18.05;64.03;99835.13;5134519;27;20027;-52
2021/07/31 03:21:14;;;;;;;3.55;0.77;;;;;;;18.06;64.15;99840.25;5134415;27;20101;-52
2021/07/31 03:24:05;;;;;;;4.32;0.60;;;;;;;17.98;64.32;99833.28;5134651;27;20034;-52
2021/07/31 03:26:31;;;;;;;3.47;0.75;;;;;;;18.02;64.17;99841.72;5152678;27;20050;-52
2021/07/31 03:28:59;;;;;;;2.78;0.63;;;;;;;18.02;64.19;99841.72;5134360;27;20042;-52
2021/07/31 03:31:25;;;;;;;5.72;0.90;;;;;;;18.04;64.19;99833.47;5130936;28;20048;-51
2021/07/31 03:33:54;;;;;;;3.70;0.80;;;;;;;18.03;63.98;99834.53;5131002;28;20510;-52
2021/07/31 03:36:21;;;;;;;4.78;1.17;;;;;;;18.03;64.25;99837.19;5130948;28;20099;-51
2021/07/31 03:39:07;;;;;;;4.32;1.15;;;;;;;18.01;64.11;99834.75;5131043;28;20031;-51
2021/07/31 03:41:36;;;;;;;3.40;0.70;;;;;;;17.96;64.65;99832.66;5132051;28;20110;-51
2021/07/31 03:44:04;;;;;;;3.22;0.70;;;;;;;17.96;64.59;99834.53;5130831;28;20031;-50
2021/07/31 03:46:33;;;;;;;4.30;1.05;;;;;;;17.99;64.22;99836.78;5130740;28;20036;-52
2021/07/31 03:48:59;;;;;;;3.30;0.63;;;;;;;18.01;64.23;99836.56;5130833;28;20126;-51
2021/07/31 03:51:27;;;;;;;3.22;0.80;;;;;;;17.96;64.21;99837.22;5113993;28;20031;-49
2021/07/31 03:53:55;;;;;;;1.63;0.52;;;;;;;17.98;64.34;99835.16;5130753;28;20040;-49
2021/07/31 03:56:21;;;;;;;3.08;0.70;;;;;;;18.00;64.31;99829.59;5132314;28;20031;-49
2021/07/31 03:58:53;;;;;;;8.48;0.77;;;;;;;18.02;64.18;99836.38;5130731;28;20096;-51
2021/07/31 04:01:27;;;;;;;3.13;0.50;;;;;;;18.04;64.21;99825.47;5130652;28;20042;-50
2021/07/31 04:03:57;;;;;;;4.13;0.98;;;;;;;18.02;63.91;99825.66;5130947;28;20423;-50
2021/07/31 04:06:24;;;;;;;2.55;0.75;;;;;;;18.04;63.95;99820.13;5134238;27;20039;-49
2021/07/31 04:09:13;;;;;;;3.67;0.68;;;;;;;18.02;64.40;99817.66;5099522;27;20043;-49
2021/07/31 04:12:11;;;;;;;2.80;0.60;;;;;;;18.00;64.28;99826.94;5095348;27;20046;-48
2021/07/31 04:14:55;;;;;;;3.20;0.70;;;;;;;17.93;64.65;99830.41;5152793;27;20370;-48
2021/07/31 04:17:21;;;;;;;6.72;1.58;;;;;;;17.92;64.81;99823.44;5117226;27;20037;-49
2021/07/31 04:19:47;;;;;;;2.83;0.60;;;;;;;17.94;64.68;99820.53;5152446;27;20038;-50
2021/07/31 04:22:15;;;;;;;3.95;0.80;;;;;;;17.98;64.49;99824.47;5134126;27;20100;-51
2021/07/31 04:24:42;;;;;;;5.10;0.70;;;;;;;18.00;64.45;99826.94;5133903;27;20027;-53
2021/07/31 04:27:09;;;;;;;5.57;1.05;;;;;;;17.99;64.38;99818.06;5133645;27;20078;-49
2021/07/31 04:29:35;;;;;;;3.78;0.60;;;;;;;18.01;64.30;99820.53;5152585;27;20035;-49
2021/07/31 04:32:01;;;;;;;3.38;0.80;;;;;;;18.02;64.33;99825.66;5152499;27;20027;-48
2021/07/31 04:34:28;;;;;;;2.55;0.50;;;;;;;18.02;64.37;99819.50;5154135;27;20109;-52
2021/07/31 04:36:54;;;;;;;2.90;0.95;;;;;;;18.00;64.29;99814.34;5156141;27;20128;-49
2021/07/31 04:39:19;;;;;;;4.88;0.90;;;;;;;17.97;64.50;99818.28;5156197;27;20031;-49
2021/07/31 04:41:45;;;;;;;2.38;0.65;;;;;;;17.94;64.42;99813.34;5155904;27;20023;-51
2021/07/31 04:44:11;;;;;;;4.32;0.93;;;;;;;17.87;64.92;99819.75;5156237;27;20026;-50
2021/07/31 04:46:36;;;;;;;4.00;0.75;;;;;;;17.80;65.20;99817.91;5155793;27;20478;-49
2021/07/31 04:49:02;;;;;;;3.58;0.73;;;;;;;17.70;65.30;99815.66;5155934;27;20031;-50
2021/07/31 04:51:28;;;;;;;4.53;0.80;;;;;;;17.61;65.50;99815.03;5137303;27;20035;-50
2021/07/31 04:53:53;;;;;;;3.38;0.80;;;;;;;17.67;65.46;99818.75;5155690;27;20038;-48
2021/07/31 04:56:19;;;;;;;3.10;1.05;;;;;;;17.64;65.55;99827.16;5155884;27;20038;-49
2021/07/31 04:58:45;;;;;;;5.07;1.13;;;;;;;17.65;65.52;99826.13;5155621;27;20388;-49
2021/07/31 05:01:11;;;;;;;3.17;0.65;;;;;;;17.72;65.43;99829.63;5136982;27;20031;-50
2021/07/31 05:03:36;;;;;;;2.33;0.52;;;;;;;17.78;65.00;99827.13;5155496;27;20515;-50
2021/07/31 05:06:05;;;;;;;3.60;0.70;;;;;;;17.68;65.42;99830.22;5133437;27;20103;-49
2021/07/31 05:08:30;;;;;;;3.15;0.88;;;;;;;17.72;65.26;99824.28;5134648;27;20516;-49
2021/07/31 05:10:56;;;;;;;3.30;0.82;;;;;;;17.71;65.33;99827.16;5134869;27;20051;-49
2021/07/31 05:13:21;;;;;;;5.78;0.60;;;;;;;17.74;65.24;99832.09;5134656;27;20474;-52
2021/07/31 05:15:48;;;;;;;3.35;1.00;;;;;;;17.73;65.37;99833.09;5134907;27;20478;-49
2021/07/31 05:18:14;;;;;;;4.53;0.60;;;;;;;17.63;65.59;99838.88;5134986;27;20039;-52
2021/07/31 05:20:45;;;;;;;4.47;0.80;;;;;;;17.65;65.92;99831.47;5134440;27;20385;-49
2021/07/31 05:23:13;;;;;;;3.85;0.93;;;;;;;17.67;65.96;99831.25;5134574;27;20039;-48
2021/07/31 05:25:44;;;;;;;3.45;0.90;;;;;;;17.63;66.04;99824.69;5134262;27;20062;-51
2021/07/31 05:28:10;;;;;;;3.67;0.60;;;;;;;17.60;65.98;99832.09;5134263;27;20043;-49
2021/07/31 05:30:39;;;;;;;3.38;0.80;;;;;;;17.60;65.94;99833.94;5134281;27;20072;-49
2021/07/31 05:33:05;;;;;;;2.78;0.80;;;;;;;17.63;65.98;99835.38;5134359;27;20049;-50
2021/07/31 05:35:31;;;;;;;2.35;0.73;;;;;;;17.61;66.01;99840.94;5134203;27;20035;-52
2021/07/31 05:37:57;;;;;;;2.78;0.70;;;;;;;17.53;66.49;99831.28;5144255;27;20111;-52
2021/07/31 05:40:23;;;;;;;4.43;0.95;;;;;;;17.51;66.65;99836.00;5154749;27;20118;-48
2021/07/31 05:42:48;;;;;;;8.50;0.82;;;;;;;17.47;66.76;99838.25;5154995;27;20039;-50
2021/07/31 05:45:14;;;;;;;2.75;0.65;;;;;;;17.51;66.55;99836.00;5136136;27;20031;-49
2021/07/31 05:47:40;;;;;;;3.92;0.85;;;;;;;17.48;66.77;99839.91;5154770;27;20038;-50
2021/07/31 05:50:21;;;;;;;5.35;1.10;;;;;;;17.53;66.56;99836.63;5154822;27;20026;-53
2021/07/31 05:52:46;;;;;;;3.80;1.10;;;;;;;17.53;66.55;99838.47;5154949;27;20062;-51
2021/07/31 05:55:12;;;;;;;4.15;0.75;;;;;;;17.53;66.51;99838.47;5154419;27;20031;-50
2021/07/31 05:57:38;;;;;;;2.40;0.60;;;;;;;17.52;66.65;99840.31;5152844;27;20023;-49
2021/07/31 06:00:04;;;;;;;3.47;0.70;;;;;;;17.58;66.19;99838.69;5125329;27;20023;-49
2021/07/31 06:02:38;;;;;;;4.05;0.75;;;;;;;17.54;66.67;99848.13;5143965;27;20031;-50
2021/07/31 06:05:04;;;;;;;4.07;1.00;;;;;;;17.56;66.38;99846.91;5154286;27;20083;-51
2021/07/31 06:07:30;;;;;;;1.65;0.60;;;;;;;17.59;66.25;99848.34;5120622;27;20027;-50
2021/07/31 06:09:55;;;;;;;1.20;0.40;;;;;;;17.60;66.42;99847.28;5133447;27;20042;-52
2021/07/31 06:12:21;;;;;;;3.80;0.65;;;;;;;17.63;65.93;99846.09;5133651;27;20092;-48
2021/07/31 06:14:48;;;;;;;1.35;0.40;;;;;;;17.60;66.51;99858.81;5137774;27;20407;-49
2021/07/31 06:17:14;;;;;;;2.53;0.60;;;;;;;17.59;66.36;99851.84;5136174;27;20039;-49
2021/07/31 06:19:40;;;;;;;4.68;0.82;;;;;;;17.53;67.19;99859.84;5154059;27;20034;-50
2021/07/31 06:22:07;;;;;;;5.35;1.00;;;;;;;17.57;66.70;99855.72;5153891;27;20042;-51
2021/07/31 06:24:32;;;;;;;3.25;0.88;;;;;;;17.58;66.72;99849.38;5154043;27;20027;-49
2021/07/31 06:26:58;;;;;;;5.47;0.80;;;;;;;17.60;66.07;99852.63;5153581;27;20047;-50
2021/07/31 06:29:23;;;;;;;1.95;0.50;;;;;;;17.62;66.24;99850.59;5153818;27;20034;-51
2021/07/31 06:31:49;;;;;;;3.38;0.88;;;;;;;17.61;66.47;99857.78;5153730;27;20401;-49
2021/07/31 06:34:15;;;;;;;2.47;0.75;;;;;;;17.62;66.35;99861.28;5153183;27;20073;-50
2021/07/31 06:36:42;;;;;;;3.08;0.80;;;;;;;17.59;66.65;99859.84;5153667;27;20094;-49
2021/07/31 06:39:09;;;;;;;2.28;0.50;;;;;;;17.62;66.23;99855.94;5135100;27;20501;-49
2021/07/31 06:41:34;;;;;;;2.35;0.85;;;;;;;17.64;66.00;99855.72;5153470;27;20031;-49
2021/07/31 06:44:00;;;;;;;1.27;0.65;;;;;;;17.64;66.31;99851.22;5153516;27;20529;-49
2021/07/31 06:46:26;;;;;;;3.28;0.50;;;;;;;17.65;66.56;99855.53;5153523;27;20027;-51
2021/07/31 06:48:56;;;;;;;1.65;0.70;;;;;;;17.66;66.60;99867.03;5153448;27;20027;-49
2021/07/31 06:51:22;;;;;;;3.72;0.68;;;;;;;17.65;66.59;99868.06;5153413;27;20083;-50
2021/07/31 06:53:49;;;;;;;2.67;0.50;;;;;;;17.63;66.90;99865.59;5153298;27;20118;-49
2021/07/31 06:56:15;;;;;;;1.85;0.70;;;;;;;17.65;66.51;99866.22;5134431;27;20264;-50
2021/07/31 06:58:41;;;;;;;3.13;0.55;;;;;;;17.66;66.46;99865.19;5153172;27;20083;-49
2021/07/31 07:01:11;;;;;;;2.10;0.70;;;;;;;17.63;66.81;99862.91;5153242;27;20041;-50
2021/07/31 07:03:38;;;;;;;3.05;0.60;;;;;;;17.66;66.45;99859.03;5153327;27;20045;-49
2021/07/31 07:06:05;;;;;;;1.83;0.57;;;;;;;17.68;66.43;99870.31;5152365;27;20031;-53
2021/07/31 07:08:32;;;;;;;3.92;1.30;;;;;;;17.68;66.38;99871.16;5152570;27;20025;-49
2021/07/31 07:11:01;;;;;;;2.88;0.80;;;;;;;17.70;66.25;99873.63;5150431;27;20489;-48
2021/07/31 07:13:27;;;;;;;1.85;0.70;;;;;;;17.70;66.64;99863.75;5150488;27;20370;-50
2021/07/31 07:15:53;;;;;;;2.13;1.02;;;;;;;17.71;66.21;99875.28;5152448;27;20037;-52
2021/07/31 07:18:19;;;;;;;2.20;1.17;;;;;;;17.70;66.54;99874.44;5152285;27;20077;-49
2021/07/31 07:20:45;;;;;;;1.88;0.68;;;;;;;17.71;66.21;99876.09;5152474;27;20030;-49
2021/07/31 07:23:11;;;;;;;1.60;0.70;;;;;;;17.72;66.06;99876.91;5152488;27;20053;-51
2021/07/31 07:25:37;;;;;;;1.48;0.50;;;;;;;17.73;66.55;99879.38;5152226;27;20050;-49
2021/07/31 07:28:03;;;;;;;2.13;0.85;;;;;;;17.76;66.04;99880.81;5152388;27;20042;-52
2021/07/31 07:30:28;;;;;;;1.75;0.73;;;;;;;17.76;66.16;99878.13;5152557;27;20362;-50
2021/07/31 07:32:54;;;;;;;0.98;0.57;;;;;;;17.77;66.47;99879.78;5152460;27;20027;-52
2021/07/31 07:35:21;;;;;;;2.35;0.65;;;;;;;17.76;66.64;99877.34;5152524;27;20026;-50
2021/07/31 07:37:47;;;;;;;2.67;0.73;;;;;;;17.76;67.19;99885.34;5153017;27;20084;-50
2021/07/31 07:40:13;;;;;;;2.15;0.77;;;;;;;17.76;67.54;99888.03;5153030;27;20034;-50
2021/07/31 07:42:39;;;;;;;12.70;1.08;;;;;;;17.76;67.28;99886.16;5152798;27;20373;-50
2021/07/31 07:45:07;;;;;;;1.98;0.57;;;;;;;17.79;66.82;99890.28;5152776;27;20047;-51
2021/07/31 07:47:33;;;;;;;5.88;0.85;;;;;;;17.79;67.27;99888.41;5152410;27;20074;-50
2021/07/31 07:50:06;;;;;;;2.13;0.50;;;;;;;17.81;66.92;99893.56;5152743;27;20100;-50
2021/07/31 07:52:31;;;;;;;2.22;0.80;;;;;;;17.82;66.75;99892.53;5152986;27;20053;-50
2021/07/31 07:54:57;;;;;;;3.33;0.73;;;;;;;17.82;66.74;99889.88;5125429;27;20505;-49
2021/07/31 07:57:23;;;;;;;1.75;0.85;;;;;;;17.83;66.64;99891.50;5151215;27;20038;-50
2021/07/31 07:59:48;;;;;;;2.35;0.70;;;;;;;17.84;66.69;99898.47;5150174;27;20039;-50
2021/07/31 08:02:17;;;;;;;15.02;1.52;;;;;;;17.88;67.37;99894.38;5152487;27;20033;-50
2021/07/31 08:04:44;;;;;;;4.95;1.08;;;;;;;17.91;67.70;99893.97;5149761;27;20104;-49
2021/07/31 08:07:11;;;;;;;3.03;0.70;;;;;;;17.95;67.29;99900.53;5133325;27;20041;-49
2021/07/31 08:09:39;;;;;;;2.25;0.88;;;;;;;17.96;67.43;99891.47;5154560;27;20042;-50
2021/07/31 08:12:05;;;;;;;3.75;0.80;;;;;;;18.00;67.29;99896.44;5155728;27;20125;-50
2021/07/31 08:14:32;;;;;;;3.25;1.00;;;;;;;18.01;67.47;99903.44;5155717;27;20034;-49
2021/07/31 08:16:57;;;;;;;1.98;0.73;;;;;;;18.04;68.55;99905.69;5154726;27;20031;-49
2021/07/31 08:19:23;;;;;;;3.65;1.00;;;;;;;18.03;68.39;99901.38;5127609;27;20676;-50
2021/07/31 08:21:49;;;;;;;3.42;1.05;;;;;;;18.03;67.95;99894.16;5143719;27;20468;-51
2021/07/31 08:24:18;;;;;;;3.05;1.00;;;;;;;18.04;67.92;99901.16;5156313;27;20035;-48
2021/07/31 08:26:45;;;;;;;6.40;1.80;;;;;;;18.07;67.65;99900.75;5155982;27;20515;-49
2021/07/31 08:29:12;;;;;;;5.25;2.70;;;;;;;18.12;67.64;99900.16;5155703;27;20077;-50
2021/07/31 08:31:41;;;;;;;7.60;2.65;;;;;;;18.14;67.93;99899.94;5155621;27;20075;-51
2021/07/31 08:34:12;;;;;;;5.55;2.60;;;;;;;18.11;67.72;99898.47;5155540;27;20050;-49
2021/07/31 08:36:37;;;;;;;8.82;5.40;;;;;;;18.10;67.61;99894.97;5154172;27;20042;-49
2021/07/31 08:39:04;;;;;;;6.72;5.30;;;;;;;18.12;67.53;99896.66;5155734;27;20034;-49
2021/07/31 08:41:30;;;;;;;8.95;5.47;;;;;;;18.11;67.42;99898.47;5156189;27;20397;-49
2021/07/31 08:43:56;;;;;;;7.88;4.45;;;;;;;18.13;67.67;99900.97;5155976;27;20110;-50
2021/07/31 08:46:23;;;;;;;12.95;4.75;;;;;;;18.12;67.61;99897.47;5155578;27;20042;-51
2021/07/31 08:48:49;;;;;;;7.32;3.97;;;;;;;18.13;67.59;99899.13;5155042;27;20037;-52
2021/07/31 08:51:16;;;;;;;22.75;3.45;;;;;;;18.14;67.63;99902.63;5155418;27;20041;-52
2021/07/31 08:53:43;;;;;;;4.00;2.63;;;;;;;18.13;67.86;99906.31;5137632;27;20490;-52
2021/07/31 08:56:09;;;;;;;3.22;2.17;;;;;;;18.14;67.73;99899.94;5155799;27;20384;-52
2021/07/31 08:58:41;;;;;;;3.80;2.47;;;;;;;18.14;67.87;99906.09;5153792;27;20065;-51
2021/07/31 09:01:07;;;;;;;3.92;1.60;;;;;;;18.15;67.89;99907.75;5147051;27;20030;-53
2021/07/31 09:03:47;;;;;;;7.40;1.45;;;;;;;18.16;68.25;99905.88;5154982;27;20370;-51
2021/07/31 09:06:30;;;;;;;4.47;1.60;;;;;;;18.15;68.21;99904.25;5134876;27;20031;-51
2021/07/31 09:08:56;;;;;;;14.18;2.13;;;;;;;18.18;68.48;99895.81;5153942;27;20109;-51
2021/07/31 09:11:23;;;;;;;7.55;1.73;;;;;;;18.18;68.32;99899.31;5151973;27;20031;-51
2021/07/31 09:14:16;;;;;;;7.47;1.58;;;;;;;18.16;68.42;99898.69;5154296;27;20126;-50
2021/07/31 09:16:43;;;;;;;5.47;1.30;;;;;;;18.17;68.18;99904.88;5155250;27;20038;-53
2021/07/31 09:19:11;;;;;;;14.40;3.30;;;;;;;18.17;68.17;99897.66;5154584;27;20488;-51
2021/07/31 09:21:37;;;;;;;23.45;3.50;;;;;;;18.18;68.30;99902.00;5155140;27;20112;-52
2021/07/31 09:24:14;;;;;;;8.45;2.60;;;;;;;18.18;68.21;99895.81;5155082;27;20040;-51
2021/07/31 09:26:49;;;;;;;7.90;2.55;;;;;;;18.18;68.33;99895.81;5154835;27;20121;-51
2021/07/31 09:29:18;;;;;;;20.85;4.68;;;;;;;18.18;68.32;99903.84;5154670;27;20082;-51
2021/07/31 09:31:49;;;;;;;20.83;4.78;;;;;;;18.17;68.21;99903.00;5154686;27;20035;-52
2021/07/31 09:34:27;;;;;;;13.07;3.28;;;;;;;18.18;68.26;99899.31;5136884;27;20117;-50
2021/07/31 09:37:09;;;;;;;16.10;3.95;;;;;;;18.20;68.27;99905.25;5154949;27;20031;-51
2021/07/31 09:39:53;;;;;;;9.13;2.97;;;;;;;18.19;68.43;99906.31;5154854;27;20099;-50
2021/07/31 09:42:26;;;;;;;14.75;2.13;;;;;;;18.21;68.34;99911.44;5136517;27;20396;-51
2021/07/31 09:44:52;;;;;;;8.07;2.40;;;;;;;18.20;68.31;99909.81;5155080;27;20151;-53
2021/07/31 09:47:17;;;;;;;7.43;2.17;;;;;;;18.21;68.27;99916.78;5154604;27;20592;-52
2021/07/31 09:49:43;;;;;;;11.55;1.48;;;;;;;18.20;68.16;99910.63;5154938;27;20034;-51
2021/07/31 09:52:17;;;;;;;4.80;1.40;;;;;;;18.23;68.56;99912.06;5154511;27;20037;-51
2021/07/31 09:54:43;;;;;;;3.58;1.30;;;;;;;18.22;68.66;99911.25;5154557;27;20388;-55
2021/07/31 09:57:11;;;;;;;9.27;1.85;;;;;;;18.22;68.51;99905.06;5154566;27;20027;-50
2021/07/31 09:59:42;;;;;;;2.25;1.20;;;;;;;18.22;68.35;99905.88;5155148;27;20373;-51
2021/07/31 10:02:13;;;;;;;3.78;1.00;;;;;;;18.22;68.25;99908.56;5135904;27;20537;-52
2021/07/31 10:04:39;;;;;;;5.45;1.40;;;;;;;18.22;68.71;99903.22;5154443;27;20031;-51
2021/07/31 10:07:05;;;;;;;4.43;1.58;;;;;;;18.22;67.79;99908.56;5154200;27;20039;-51
2021/07/31 10:09:32;;;;;;;2.78;1.15;;;;;;;18.23;68.50;99912.88;5154337;27;20648;-51
2021/07/31 10:11:59;;;;;;;5.78;1.20;;;;;;;18.23;68.50;99909.41;5154145;27;20508;-50
2021/07/31 10:14:25;;;;;;;5.28;1.17;;;;;;;18.25;68.05;99909.19;5152970;27;20442;-50
2021/07/31 10:16:51;;;;;;;2.28;0.90;;;;;;;18.23;67.87;99899.50;5154194;27;20035;-51
2021/07/31 10:19:18;;;;;;;3.17;1.40;;;;;;;18.26;67.97;99908.16;5135006;27;20054;-51
2021/07/31 10:21:52;;;;;;;4.47;1.60;;;;;;;18.23;67.82;99899.50;5153934;27;20095;-49
2021/07/31 10:24:19;;;;;;;1.95;0.73;;;;;;;18.25;67.93;99899.28;5154084;27;20071;-49
2021/07/31 10:27:16;;;;;;;1.55;1.10;;;;;;;18.26;68.04;99897.44;5153774;27;20117;-48
2021/07/31 10:29:44;;;;;;;2.30;0.82;;;;;;;18.26;67.84;99900.94;5153633;27;20039;-50
2021/07/31 10:32:21;;;;;;;2.80;0.95;;;;;;;18.27;67.88;99904.47;5133996;27;20038;-50
2021/07/31 10:35:01;;;;;;;2.50;0.93;;;;;;;18.26;68.05;99903.63;5150593;27;20025;-50
2021/07/31 10:37:29;;;;;;;6.43;1.08;;;;;;;18.26;68.11;99908.97;5153469;27;20035;-50
2021/07/31 10:40:04;;;;;;;2.67;0.90;;;;;;;18.28;68.41;99914.13;5153516;27;20033;-52
2021/07/31 10:42:51;;;;;;;3.70;1.30;;;;;;;18.27;68.59;99907.94;5150975;27;20384;-51
2021/07/31 10:45:28;;;;;;;2.78;1.60;;;;;;;18.27;68.60;99904.47;5151839;27;20515;-52
2021/07/31 10:47:56;;;;;;;6.13;1.40;;;;;;;18.26;68.37;99917.00;5151075;27;20035;-51
2021/07/31 10:50:21;;;;;;;3.33;1.30;;;;;;;18.26;68.35;99911.66;5153157;27;20030;-51
2021/07/31 10:53:07;;;;;;;2.30;1.40;;;;;;;18.26;68.38;99910.81;5150255;27;20434;-50
2021/07/31 10:55:35;;;;;;;3.08;1.10;;;;;;;18.26;68.31;99913.50;5150858;27;20106;-51
2021/07/31 10:58:11;;;;;;;5.32;1.30;;;;;;;18.27;68.23;99912.47;5134458;27;20022;-51
2021/07/31 11:00:44;;;;;;;;;;;;;;;18.30;67.80;99904.03;5152343;27;20042;-52
2021/07/31 11:03:15;;;;;;;2.83;1.20;;;;;;;18.30;67.91;99904.03;5150352;27;19915;-52
2021/07/31 11:06:03;;;;;;;2.30;1.27;;;;;;;18.32;67.81;99905.47;5153092;27;20026;-52
2021/07/31 11:08:48;;;;;;;2.45;1.13;;;;;;;18.33;67.69;99900.94;5125680;27;20042;-50
2021/07/31 11:11:13;;;;;;;2.17;0.95;;;;;;;18.34;67.62;99910.59;5133193;27;20073;-51
2021/07/31 11:13:39;;;;;;;2.05;0.90;;;;;;;18.34;67.72;99900.72;5152546;27;20164;-50
2021/07/31 11:16:07;;;;;;;1.67;0.85;;;;;;;18.34;68.02;99906.09;5152585;27;20126;-51
2021/07/31 11:18:35;;;;;;;2.13;1.45;;;;;;;18.34;68.30;99907.94;5152934;27;20460;-51
2021/07/31 11:21:13;;;;;;;2.08;1.05;;;;;;;18.33;68.32;99911.66;5152943;27;20126;-51
2021/07/31 11:23:43;;;;;;;1.83;1.00;;;;;;;18.34;68.22;99900.72;5152392;27;20079;-51
2021/07/31 11:26:09;;;;;;;3.30;1.00;;;;;;;18.34;68.44;99905.25;5152283;27;20045;-50
2021/07/31 11:28:38;;;;;;;1.17;0.70;;;;;;;18.34;68.06;99897.22;5152523;27;20448;-51
2021/07/31 11:31:18;;;;;;;1.83;1.20;;;;;;;18.36;68.02;99900.53;5131442;27;20057;-54
2021/07/31 11:33:57;;;;;;;2.05;1.20;;;;;;;18.38;67.84;99897.63;5149843;27;20423;-52
2021/07/31 11:36:22;;;;;;;2.60;1.40;;;;;;;18.38;68.08;99901.13;5149808;27;20095;-52
2021/07/31 11:38:51;;;;;;;1.42;1.10;;;;;;;18.39;68.38;99900.09;5134137;27;20023;-51
2021/07/31 11:41:17;;;;;;;1.88;1.20;;;;;;;18.39;68.60;99897.44;5152446;27;20455;-51